sensor_id;sensor_type;location;lat;lon;timestamp;P1;durP1;ratioP1;P2;durP2;ratioP2
29504;SDS011;16452;54.174;12.092;2022-10-17T00:00:27;10.73;;;3.50;;
29504;SDS011;16452;54.174;12.092;2022-10-17T00:02:54;14.55;;;3.60;;
29504;SDS011;16452;54.174;12.092;2022-10-17T00:05:20;10.52;;;3.85;;
29504;SDS011;16452;54.174;12.092;2022-10-17T00:07:46;8.75;;;3.22;;
29504;SDS011;16452;54.174;12.092;2022-10-17T00:10:12;5.97;;;3.25;;
29504;SDS011;16452;54.174;12.092;2022-10-17T00:12:38;7.47;;;3.40;;
29504;SDS011;16452;54.174;12.092;2022-10-17T00:15:04;7.20;;;3.30;;
29504;SDS011;16452;54.174;12.092;2022-10-17T00:17:32;7.82;;;3.42;;
29504;SDS011;16452;54.174;12.092;2022-10-17T00:19:59;9.75;;;3.72;;
29504;SDS011;16452;54.174;12.092;2022-10-17T00:22:26;7.68;;;3.75;;
29504;SDS011;16452;54.174;12.092;2022-10-17T00:24:52;8.93;;;3.80;;
29504;SDS011;16452;54.174;12.092;2022-10-17T00:27:21;6.78;;;3.58;;
29504;SDS011;16452;54.174;12.092;2022-10-17T00:29:47;7.10;;;3.42;;
29504;SDS011;16452;54.174;12.092;2022-10-17T00:32:14;8.60;;;3.25;;
29504;SDS011;16452;54.174;12.092;2022-10-17T00:34:40;11.98;;;3.45;;
29504;SDS011;16452;54.174;12.092;2022-10-17T00:37:06;9.75;;;3.30;;
29504;SDS011;16452;54.174;12.092;2022-10-17T00:39:31;7.07;;;3.33;;
29504;SDS011;16452;54.174;12.092;2022-10-17T00:41:57;5.95;;;3.35;;
29504;SDS011;16452;54.174;12.092;2022-10-17T00:46:55;7.43;;;3.30;;
29504;SDS011;16452;54.174;12.092;2022-10-17T00:49:23;10.02;;;3.75;;
29504;SDS011;16452;54.174;12.092;2022-10-17T00:51:55;15.32;;;3.67;;
29504;SDS011;16452;54.174;12.092;2022-10-17T00:54:26;5.50;;;3.10;;
29504;SDS011;16452;54.174;12.092;2022-10-17T00:56:57;7.20;;;3.17;;
29504;SDS011;16452;54.174;12.092;2022-10-17T00:59:24;6.07;;;3.28;;
29504;SDS011;16452;54.174;12.092;2022-10-17T01:02:04;6.80;;;3.33;;
29504;SDS011;16452;54.174;12.092;2022-10-17T01:04:39;10.55;;;3.33;;
29504;SDS011;16452;54.174;12.092;2022-10-17T01:07:11;7.97;;;3.83;;
29504;SDS011;16452;54.174;12.092;2022-10-17T01:09:37;7.05;;;3.10;;
29504;SDS011;16452;54.174;12.092;2022-10-17T01:12:06;9.73;;;3.40;;
29504;SDS011;16452;54.174;12.092;2022-10-17T01:17:52;7.32;;;3.08;;
29504;SDS011;16452;54.174;12.092;2022-10-17T01:30:02;9.15;;;3.75;;
29504;SDS011;16452;54.174;12.092;2022-10-17T01:35:56;8.30;;;3.70;;
29504;SDS011;16452;54.174;12.092;2022-10-17T01:38:45;10.68;;;3.47;;
29504;SDS011;16452;54.174;12.092;2022-10-17T01:43:54;10.73;;;3.38;;
29504;SDS011;16452;54.174;12.092;2022-10-17T01:46:32;8.25;;;3.00;;
29504;SDS011;16452;54.174;12.092;2022-10-17T01:49:02;4.75;;;3.30;;
29504;SDS011;16452;54.174;12.092;2022-10-17T01:51:34;7.82;;;3.17;;
29504;SDS011;16452;54.174;12.092;2022-10-17T01:54:17;7.47;;;3.75;;
29504;SDS011;16452;54.174;12.092;2022-10-17T01:57:10;12.73;;;3.90;;
29504;SDS011;16452;54.174;12.092;2022-10-17T01:59:53;7.32;;;3.50;;
29504;SDS011;16452;54.174;12.092;2022-10-17T02:02:20;7.88;;;3.25;;
29504;SDS011;16452;54.174;12.092;2022-10-17T02:04:50;7.88;;;3.33;;
29504;SDS011;16452;54.174;12.092;2022-10-17T02:07:18;5.07;;;3.03;;
29504;SDS011;16452;54.174;12.092;2022-10-17T02:09:43;6.78;;;3.15;;
29504;SDS011;16452;54.174;12.092;2022-10-17T02:24:03;6.60;;;3.30;;
29504;SDS011;16452;54.174;12.092;2022-10-17T02:30:11;14.57;;;3.90;;
29504;SDS011;16452;54.174;12.092;2022-10-17T02:32:47;7.32;;;3.53;;
29504;SDS011;16452;54.174;12.092;2022-10-17T02:35:20;9.18;;;3.92;;
29504;SDS011;16452;54.174;12.092;2022-10-17T02:37:49;6.82;;;4.35;;
29504;SDS011;16452;54.174;12.092;2022-10-17T02:40:16;9.77;;;4.20;;
29504;SDS011;16452;54.174;12.092;2022-10-17T02:42:45;6.95;;;3.80;;
29504;SDS011;16452;54.174;12.092;2022-10-17T02:45:18;7.05;;;3.80;;
29504;SDS011;16452;54.174;12.092;2022-10-17T02:47:49;8.38;;;3.53;;
29504;SDS011;16452;54.174;12.092;2022-10-17T02:50:48;6.28;;;3.35;;
29504;SDS011;16452;54.174;12.092;2022-10-17T02:56:36;9.77;;;3.92;;
29504;SDS011;16452;54.174;12.092;2022-10-17T02:59:09;8.15;;;4.38;;
29504;SDS011;16452;54.174;12.092;2022-10-17T03:01:40;7.15;;;3.83;;
29504;SDS011;16452;54.174;12.092;2022-10-17T03:04:07;6.22;;;3.10;;
29504;SDS011;16452;54.174;12.092;2022-10-17T03:06:37;5.60;;;2.88;;
29504;SDS011;16452;54.174;12.092;2022-10-17T03:09:03;10.68;;;3.58;;
29504;SDS011;16452;54.174;12.092;2022-10-17T03:11:29;8.77;;;3.28;;
29504;SDS011;16452;54.174;12.092;2022-10-17T03:13:55;8.90;;;3.55;;
29504;SDS011;16452;54.174;12.092;2022-10-17T03:16:21;7.00;;;3.38;;
29504;SDS011;16452;54.174;12.092;2022-10-17T03:18:46;8.52;;;3.10;;
29504;SDS011;16452;54.174;12.092;2022-10-17T03:21:12;5.40;;;3.20;;
29504;SDS011;16452;54.174;12.092;2022-10-17T03:23:38;6.15;;;3.75;;
29504;SDS011;16452;54.174;12.092;2022-10-17T03:26:04;13.88;;;7.10;;
29504;SDS011;16452;54.174;12.092;2022-10-17T03:28:31;8.98;;;4.75;;
29504;SDS011;16452;54.174;12.092;2022-10-17T03:30:57;6.82;;;3.65;;
29504;SDS011;16452;54.174;12.092;2022-10-17T03:33:22;5.70;;;3.63;;
29504;SDS011;16452;54.174;12.092;2022-10-17T03:35:48;8.25;;;5.15;;
29504;SDS011;16452;54.174;12.092;2022-10-17T03:38:14;8.65;;;3.97;;
29504;SDS011;16452;54.174;12.092;2022-10-17T03:40:40;10.15;;;4.22;;
29504;SDS011;16452;54.174;12.092;2022-10-17T03:43:05;9.52;;;3.67;;
29504;SDS011;16452;54.174;12.092;2022-10-17T03:45:31;12.93;;;4.15;;
29504;SDS011;16452;54.174;12.092;2022-10-17T03:47:57;6.32;;;3.50;;
29504;SDS011;16452;54.174;12.092;2022-10-17T03:50:24;8.45;;;3.35;;
29504;SDS011;16452;54.174;12.092;2022-10-17T03:52:50;6.80;;;3.70;;
29504;SDS011;16452;54.174;12.092;2022-10-17T03:55:15;8.35;;;3.50;;
29504;SDS011;16452;54.174;12.092;2022-10-17T03:57:41;10.32;;;3.50;;
29504;SDS011;16452;54.174;12.092;2022-10-17T04:00:07;8.55;;;3.65;;
29504;SDS011;16452;54.174;12.092;2022-10-17T04:02:34;9.38;;;3.00;;
29504;SDS011;16452;54.174;12.092;2022-10-17T04:05:00;5.53;;;3.10;;
29504;SDS011;16452;54.174;12.092;2022-10-17T04:07:26;5.93;;;2.70;;
29504;SDS011;16452;54.174;12.092;2022-10-17T04:09:52;5.78;;;2.70;;
29504;SDS011;16452;54.174;12.092;2022-10-17T04:12:17;4.05;;;2.35;;
29504;SDS011;16452;54.174;12.092;2022-10-17T04:14:43;7.70;;;2.75;;
29504;SDS011;16452;54.174;12.092;2022-10-17T04:17:09;8.45;;;3.10;;
29504;SDS011;16452;54.174;12.092;2022-10-17T04:19:35;8.20;;;3.10;;
29504;SDS011;16452;54.174;12.092;2022-10-17T04:22:00;7.53;;;3.60;;
29504;SDS011;16452;54.174;12.092;2022-10-17T04:24:27;9.05;;;3.05;;
29504;SDS011;16452;54.174;12.092;2022-10-17T04:26:56;6.63;;;3.45;;
29504;SDS011;16452;54.174;12.092;2022-10-17T04:29:22;5.93;;;3.50;;
29504;SDS011;16452;54.174;12.092;2022-10-17T04:31:49;10.55;;;3.42;;
29504;SDS011;16452;54.174;12.092;2022-10-17T04:34:16;10.35;;;3.08;;
29504;SDS011;16452;54.174;12.092;2022-10-17T04:36:42;6.40;;;3.08;;
29504;SDS011;16452;54.174;12.092;2022-10-17T04:39:07;11.40;;;3.22;;
29504;SDS011;16452;54.174;12.092;2022-10-17T04:41:33;5.32;;;3.08;;
29504;SDS011;16452;54.174;12.092;2022-10-17T04:43:59;6.75;;;2.60;;
29504;SDS011;16452;54.174;12.092;2022-10-17T04:46:24;8.18;;;3.20;;
29504;SDS011;16452;54.174;12.092;2022-10-17T04:48:50;8.88;;;2.90;;
29504;SDS011;16452;54.174;12.092;2022-10-17T04:51:18;5.60;;;2.65;;
29504;SDS011;16452;54.174;12.092;2022-10-17T04:53:44;9.15;;;3.17;;
29504;SDS011;16452;54.174;12.092;2022-10-17T04:56:17;6.40;;;2.80;;
29504;SDS011;16452;54.174;12.092;2022-10-17T04:58:46;7.45;;;3.05;;
29504;SDS011;16452;54.174;12.092;2022-10-17T05:01:13;4.97;;;3.08;;
29504;SDS011;16452;54.174;12.092;2022-10-17T05:03:41;7.90;;;2.90;;
29504;SDS011;16452;54.174;12.092;2022-10-17T05:06:12;7.25;;;3.08;;
29504;SDS011;16452;54.174;12.092;2022-10-17T05:08:40;10.27;;;2.90;;
29504;SDS011;16452;54.174;12.092;2022-10-17T05:11:28;5.90;;;2.97;;
29504;SDS011;16452;54.174;12.092;2022-10-17T05:13:54;9.80;;;2.60;;
29504;SDS011;16452;54.174;12.092;2022-10-17T05:16:25;9.55;;;2.80;;
29504;SDS011;16452;54.174;12.092;2022-10-17T05:18:55;5.07;;;2.70;;
29504;SDS011;16452;54.174;12.092;2022-10-17T05:21:23;5.75;;;2.70;;
29504;SDS011;16452;54.174;12.092;2022-10-17T05:23:50;6.25;;;2.75;;
29504;SDS011;16452;54.174;12.092;2022-10-17T05:26:16;6.07;;;2.88;;
29504;SDS011;16452;54.174;12.092;2022-10-17T05:28:42;6.75;;;2.42;;
29504;SDS011;16452;54.174;12.092;2022-10-17T05:31:09;11.82;;;3.25;;
29504;SDS011;16452;54.174;12.092;2022-10-17T05:33:35;6.78;;;2.45;;
29504;SDS011;16452;54.174;12.092;2022-10-17T05:36:02;7.97;;;3.40;;
29504;SDS011;16452;54.174;12.092;2022-10-17T05:38:29;7.63;;;3.42;;
29504;SDS011;16452;54.174;12.092;2022-10-17T05:40:58;10.15;;;2.75;;
29504;SDS011;16452;54.174;12.092;2022-10-17T05:43:29;5.80;;;2.70;;
29504;SDS011;16452;54.174;12.092;2022-10-17T05:45:56;5.28;;;2.65;;
29504;SDS011;16452;54.174;12.092;2022-10-17T05:48:22;8.48;;;3.22;;
29504;SDS011;16452;54.174;12.092;2022-10-17T05:50:48;7.72;;;2.53;;
29504;SDS011;16452;54.174;12.092;2022-10-17T05:53:14;6.90;;;2.45;;
29504;SDS011;16452;54.174;12.092;2022-10-17T05:55:41;6.75;;;2.50;;
29504;SDS011;16452;54.174;12.092;2022-10-17T05:58:06;7.03;;;2.60;;
29504;SDS011;16452;54.174;12.092;2022-10-17T06:00:32;6.07;;;2.90;;
29504;SDS011;16452;54.174;12.092;2022-10-17T06:02:58;4.07;;;2.65;;
29504;SDS011;16452;54.174;12.092;2022-10-17T06:05:24;5.20;;;2.65;;
29504;SDS011;16452;54.174;12.092;2022-10-17T06:07:50;6.03;;;2.70;;
29504;SDS011;16452;54.174;12.092;2022-10-17T06:10:16;6.22;;;2.72;;
29504;SDS011;16452;54.174;12.092;2022-10-17T06:12:47;4.88;;;2.35;;
29504;SDS011;16452;54.174;12.092;2022-10-17T06:15:13;6.43;;;2.42;;
29504;SDS011;16452;54.174;12.092;2022-10-17T06:17:39;4.88;;;2.35;;
29504;SDS011;16452;54.174;12.092;2022-10-17T06:20:04;3.75;;;2.58;;
29504;SDS011;16452;54.174;12.092;2022-10-17T06:22:32;3.17;;;2.40;;
29504;SDS011;16452;54.174;12.092;2022-10-17T06:24:57;5.07;;;2.25;;
29504;SDS011;16452;54.174;12.092;2022-10-17T06:27:23;5.18;;;2.58;;
29504;SDS011;16452;54.174;12.092;2022-10-17T06:29:49;6.70;;;2.55;;
29504;SDS011;16452;54.174;12.092;2022-10-17T06:32:15;4.28;;;2.25;;
29504;SDS011;16452;54.174;12.092;2022-10-17T06:34:41;3.85;;;2.22;;
29504;SDS011;16452;54.174;12.092;2022-10-17T06:37:06;3.38;;;2.00;;
29504;SDS011;16452;54.174;12.092;2022-10-17T06:39:33;4.60;;;2.30;;
29504;SDS011;16452;54.174;12.092;2022-10-17T06:41:59;5.43;;;2.35;;
29504;SDS011;16452;54.174;12.092;2022-10-17T06:44:26;5.15;;;2.25;;
29504;SDS011;16452;54.174;12.092;2022-10-17T06:46:56;4.63;;;2.08;;
29504;SDS011;16452;54.174;12.092;2022-10-17T06:49:23;8.88;;;2.42;;
29504;SDS011;16452;54.174;12.092;2022-10-17T06:51:49;3.90;;;2.20;;
29504;SDS011;16452;54.174;12.092;2022-10-17T06:54:15;8.15;;;2.22;;
29504;SDS011;16452;54.174;12.092;2022-10-17T06:56:41;3.00;;;2.30;;
29504;SDS011;16452;54.174;12.092;2022-10-17T06:59:07;7.28;;;2.25;;
29504;SDS011;16452;54.174;12.092;2022-10-17T07:01:34;4.72;;;2.15;;
29504;SDS011;16452;54.174;12.092;2022-10-17T07:04:00;14.45;;;9.60;;
29504;SDS011;16452;54.174;12.092;2022-10-17T07:06:27;5.40;;;2.50;;
29504;SDS011;16452;54.174;12.092;2022-10-17T07:08:52;4.38;;;1.85;;
29504;SDS011;16452;54.174;12.092;2022-10-17T07:11:20;6.95;;;2.33;;
29504;SDS011;16452;54.174;12.092;2022-10-17T07:13:46;11.80;;;3.38;;
29504;SDS011;16452;54.174;12.092;2022-10-17T07:16:13;8.80;;;2.50;;
29504;SDS011;16452;54.174;12.092;2022-10-17T07:18:40;27.17;;;2.42;;
29504;SDS011;16452;54.174;12.092;2022-10-17T07:21:07;10.93;;;2.03;;
29504;SDS011;16452;54.174;12.092;2022-10-17T07:23:33;6.00;;;1.80;;
29504;SDS011;16452;54.174;12.092;2022-10-17T07:26:02;5.20;;;2.00;;
29504;SDS011;16452;54.174;12.092;2022-10-17T07:28:34;10.88;;;2.17;;
29504;SDS011;16452;54.174;12.092;2022-10-17T07:31:05;4.95;;;2.00;;
29504;SDS011;16452;54.174;12.092;2022-10-17T07:33:33;11.00;;;2.37;;
29504;SDS011;16452;54.174;12.092;2022-10-17T07:35:59;7.78;;;2.05;;
29504;SDS011;16452;54.174;12.092;2022-10-17T07:38:26;13.40;;;2.20;;
29504;SDS011;16452;54.174;12.092;2022-10-17T07:40:56;10.85;;;1.83;;
29504;SDS011;16452;54.174;12.092;2022-10-17T07:43:25;9.38;;;2.20;;
29504;SDS011;16452;54.174;12.092;2022-10-17T07:45:51;8.90;;;2.20;;
29504;SDS011;16452;54.174;12.092;2022-10-17T07:48:18;5.47;;;1.85;;
29504;SDS011;16452;54.174;12.092;2022-10-17T07:50:46;8.63;;;1.90;;
29504;SDS011;16452;54.174;12.092;2022-10-17T07:53:12;6.07;;;1.98;;
29504;SDS011;16452;54.174;12.092;2022-10-17T07:55:39;4.93;;;1.90;;
29504;SDS011;16452;54.174;12.092;2022-10-17T07:58:06;8.13;;;1.85;;
29504;SDS011;16452;54.174;12.092;2022-10-17T08:00:33;7.25;;;2.08;;
29504;SDS011;16452;54.174;12.092;2022-10-17T08:03:01;9.50;;;4.80;;
29504;SDS011;16452;54.174;12.092;2022-10-17T08:05:28;9.32;;;5.20;;
29504;SDS011;16452;54.174;12.092;2022-10-17T08:07:58;3.95;;;2.17;;
29504;SDS011;16452;54.174;12.092;2022-10-17T08:10:24;4.68;;;2.10;;
29504;SDS011;16452;54.174;12.092;2022-10-17T08:12:52;3.22;;;1.90;;
29504;SDS011;16452;54.174;12.092;2022-10-17T08:15:19;3.33;;;2.10;;
29504;SDS011;16452;54.174;12.092;2022-10-17T08:17:45;10.00;;;2.17;;
29504;SDS011;16452;54.174;12.092;2022-10-17T08:20:11;9.73;;;1.98;;
29504;SDS011;16452;54.174;12.092;2022-10-17T08:22:37;7.43;;;2.08;;
29504;SDS011;16452;54.174;12.092;2022-10-17T08:25:03;3.28;;;1.90;;
29504;SDS011;16452;54.174;12.092;2022-10-17T08:27:31;4.22;;;1.60;;
29504;SDS011;16452;54.174;12.092;2022-10-17T08:29:58;4.47;;;1.92;;
29504;SDS011;16452;54.174;12.092;2022-10-17T08:32:25;4.93;;;2.08;;
29504;SDS011;16452;54.174;12.092;2022-10-17T08:34:53;5.70;;;1.98;;
29504;SDS011;16452;54.174;12.092;2022-10-17T08:37:23;4.93;;;1.90;;
29504;SDS011;16452;54.174;12.092;2022-10-17T08:39:49;7.20;;;2.33;;
29504;SDS011;16452;54.174;12.092;2022-10-17T08:42:23;6.25;;;2.38;;
29504;SDS011;16452;54.174;12.092;2022-10-17T08:47:53;9.20;;;2.20;;
29504;SDS011;16452;54.174;12.092;2022-10-17T08:53:08;10.60;;;2.75;;
29504;SDS011;16452;54.174;12.092;2022-10-17T08:56:18;6.40;;;2.97;;
29504;SDS011;16452;54.174;12.092;2022-10-17T08:58:50;8.27;;;3.13;;
29504;SDS011;16452;54.174;12.092;2022-10-17T09:07:42;6.38;;;3.30;;
29504;SDS011;16452;54.174;12.092;2022-10-17T09:13:32;8.50;;;3.05;;
29504;SDS011;16452;54.174;12.092;2022-10-17T09:19:02;8.18;;;2.80;;
29504;SDS011;16452;54.174;12.092;2022-10-17T09:22:07;7.95;;;3.08;;
29504;SDS011;16452;54.174;12.092;2022-10-17T09:24:52;5.70;;;3.53;;
29504;SDS011;16452;54.174;12.092;2022-10-17T09:27:50;10.95;;;3.60;;
29504;SDS011;16452;54.174;12.092;2022-10-17T09:33:17;5.25;;;3.10;;
29504;SDS011;16452;54.174;12.092;2022-10-17T09:35:45;6.40;;;3.58;;
29504;SDS011;16452;54.174;12.092;2022-10-17T09:38:14;5.47;;;2.80;;
29504;SDS011;16452;54.174;12.092;2022-10-17T09:41:03;7.22;;;3.00;;
29504;SDS011;16452;54.174;12.092;2022-10-17T09:43:38;3.53;;;2.55;;
29504;SDS011;16452;54.174;12.092;2022-10-17T09:46:06;5.20;;;2.50;;
29504;SDS011;16452;54.174;12.092;2022-10-17T09:49:16;6.80;;;2.63;;
29504;SDS011;16452;54.174;12.092;2022-10-17T09:51:45;4.30;;;2.78;;
29504;SDS011;16452;54.174;12.092;2022-10-17T09:54:19;5.32;;;3.03;;
29504;SDS011;16452;54.174;12.092;2022-10-17T09:57:01;7.85;;;2.97;;
29504;SDS011;16452;54.174;12.092;2022-10-17T09:59:35;4.50;;;2.90;;
29504;SDS011;16452;54.174;12.092;2022-10-17T10:07:22;7.30;;;2.95;;
29504;SDS011;16452;54.174;12.092;2022-10-17T10:09:54;5.95;;;3.10;;
29504;SDS011;16452;54.174;12.092;2022-10-17T10:12:22;4.55;;;2.92;;
29504;SDS011;16452;54.174;12.092;2022-10-17T10:14:51;6.20;;;3.40;;
29504;SDS011;16452;54.174;12.092;2022-10-17T10:17:50;7.30;;;3.05;;
29504;SDS011;16452;54.174;12.092;2022-10-17T10:20:26;5.20;;;3.10;;
29504;SDS011;16452;54.174;12.092;2022-10-17T10:23:11;6.03;;;2.92;;
29504;SDS011;16452;54.174;12.092;2022-10-17T10:28:32;4.55;;;2.60;;
29504;SDS011;16452;54.174;12.092;2022-10-17T10:31:09;7.32;;;2.80;;
29504;SDS011;16452;54.174;12.092;2022-10-17T10:33:36;5.22;;;2.70;;
29504;SDS011;16452;54.174;12.092;2022-10-17T10:36:07;8.25;;;2.80;;
29504;SDS011;16452;54.174;12.092;2022-10-17T10:38:33;4.45;;;2.83;;
29504;SDS011;16452;54.174;12.092;2022-10-17T10:41:06;7.18;;;3.20;;
29504;SDS011;16452;54.174;12.092;2022-10-17T10:43:37;7.47;;;3.30;;
29504;SDS011;16452;54.174;12.092;2022-10-17T10:46:16;4.28;;;3.17;;
29504;SDS011;16452;54.174;12.092;2022-10-17T10:48:58;4.38;;;3.03;;
29504;SDS011;16452;54.174;12.092;2022-10-17T10:51:28;4.93;;;3.45;;
29504;SDS011;16452;54.174;12.092;2022-10-17T10:54:22;4.50;;;2.97;;
29504;SDS011;16452;54.174;12.092;2022-10-17T10:57:11;6.45;;;3.00;;
29504;SDS011;16452;54.174;12.092;2022-10-17T10:59:56;4.97;;;3.20;;
29504;SDS011;16452;54.174;12.092;2022-10-17T11:02:53;7.53;;;3.28;;
29504;SDS011;16452;54.174;12.092;2022-10-17T11:05:36;5.57;;;3.28;;
29504;SDS011;16452;54.174;12.092;2022-10-17T11:08:16;3.10;;;2.80;;
29504;SDS011;16452;54.174;12.092;2022-10-17T11:13:42;5.88;;;3.50;;
29504;SDS011;16452;54.174;12.092;2022-10-17T11:16:34;9.93;;;3.63;;
29504;SDS011;16452;54.174;12.092;2022-10-17T11:19:24;5.95;;;3.30;;
29504;SDS011;16452;54.174;12.092;2022-10-17T11:24:52;6.85;;;3.40;;
29504;SDS011;16452;54.174;12.092;2022-10-17T11:28:02;15.13;;;11.38;;
29504;SDS011;16452;54.174;12.092;2022-10-17T11:36:15;7.00;;;4.00;;
29504;SDS011;16452;54.174;12.092;2022-10-17T11:41:39;6.05;;;3.67;;
29504;SDS011;16452;54.174;12.092;2022-10-17T11:44:38;6.75;;;3.30;;
29504;SDS011;16452;54.174;12.092;2022-10-17T11:47:11;7.20;;;3.70;;
29504;SDS011;16452;54.174;12.092;2022-10-17T11:50:02;8.48;;;3.83;;
29504;SDS011;16452;54.174;12.092;2022-10-17T11:55:28;6.45;;;3.35;;
29504;SDS011;16452;54.174;12.092;2022-10-17T12:07:12;4.18;;;2.85;;
29504;SDS011;16452;54.174;12.092;2022-10-17T12:10:29;6.82;;;3.28;;
29504;SDS011;16452;54.174;12.092;2022-10-17T12:18:43;4.43;;;3.15;;
29504;SDS011;16452;54.174;12.092;2022-10-17T12:22:03;7.90;;;3.25;;
29504;SDS011;16452;54.174;12.092;2022-10-17T12:24:40;6.28;;;3.10;;
29504;SDS011;16452;54.174;12.092;2022-10-17T12:30:05;5.05;;;3.22;;
29504;SDS011;16452;54.174;12.092;2022-10-17T12:35:47;7.13;;;3.08;;
29504;SDS011;16452;54.174;12.092;2022-10-17T12:40:51;10.68;;;3.33;;
29504;SDS011;16452;54.174;12.092;2022-10-17T12:45:55;5.88;;;3.15;;
29504;SDS011;16452;54.174;12.092;2022-10-17T12:51:07;6.43;;;3.35;;
29504;SDS011;16452;54.174;12.092;2022-10-17T12:56:46;8.18;;;3.38;;
29504;SDS011;16452;54.174;12.092;2022-10-17T12:59:17;4.35;;;3.13;;
29504;SDS011;16452;54.174;12.092;2022-10-17T13:01:49;10.10;;;3.28;;
29504;SDS011;16452;54.174;12.092;2022-10-17T13:04:19;8.07;;;3.13;;
29504;SDS011;16452;54.174;12.092;2022-10-17T13:06:46;5.95;;;3.38;;
29504;SDS011;16452;54.174;12.092;2022-10-17T13:09:31;4.30;;;2.90;;
29504;SDS011;16452;54.174;12.092;2022-10-17T13:12:02;4.40;;;3.20;;
29504;SDS011;16452;54.174;12.092;2022-10-17T13:14:33;4.60;;;3.00;;
29504;SDS011;16452;54.174;12.092;2022-10-17T13:17:03;8.50;;;3.90;;
29504;SDS011;16452;54.174;12.092;2022-10-17T13:19:39;4.05;;;2.90;;
29504;SDS011;16452;54.174;12.092;2022-10-17T13:22:25;6.43;;;2.85;;
29504;SDS011;16452;54.174;12.092;2022-10-17T13:25:04;8.07;;;3.35;;
29504;SDS011;16452;54.174;12.092;2022-10-17T13:27:50;7.88;;;3.38;;
29504;SDS011;16452;54.174;12.092;2022-10-17T13:30:32;5.10;;;2.95;;
29504;SDS011;16452;54.174;12.092;2022-10-17T13:33:00;5.15;;;3.38;;
29504;SDS011;16452;54.174;12.092;2022-10-17T13:35:29;6.93;;;3.33;;
29504;SDS011;16452;54.174;12.092;2022-10-17T13:38:03;8.20;;;3.72;;
29504;SDS011;16452;54.174;12.092;2022-10-17T13:40:40;8.57;;;3.50;;
29504;SDS011;16452;54.174;12.092;2022-10-17T13:43:16;10.50;;;4.03;;
29504;SDS011;16452;54.174;12.092;2022-10-17T13:45:50;8.13;;;4.20;;
29504;SDS011;16452;54.174;12.092;2022-10-17T13:48:26;8.23;;;3.95;;
29504;SDS011;16452;54.174;12.092;2022-10-17T13:50:55;9.07;;;3.67;;
29504;SDS011;16452;54.174;12.092;2022-10-17T13:53:32;4.80;;;3.78;;
29504;SDS011;16452;54.174;12.092;2022-10-17T13:58:51;7.32;;;3.35;;
29504;SDS011;16452;54.174;12.092;2022-10-17T14:01:25;5.20;;;3.35;;
29504;SDS011;16452;54.174;12.092;2022-10-17T14:03:53;10.98;;;3.72;;
29504;SDS011;16452;54.174;12.092;2022-10-17T14:06:20;10.85;;;3.17;;
29504;SDS011;16452;54.174;12.092;2022-10-17T14:09:01;6.15;;;3.47;;
29504;SDS011;16452;54.174;12.092;2022-10-17T14:11:42;8.73;;;3.78;;
29504;SDS011;16452;54.174;12.092;2022-10-17T14:14:21;4.78;;;3.45;;
29504;SDS011;16452;54.174;12.092;2022-10-17T14:16:50;9.90;;;3.95;;
29504;SDS011;16452;54.174;12.092;2022-10-17T14:22:13;4.82;;;3.85;;
29504;SDS011;16452;54.174;12.092;2022-10-17T14:24:48;5.32;;;3.40;;
29504;SDS011;16452;54.174;12.092;2022-10-17T14:27:30;6.90;;;3.38;;
29504;SDS011;16452;54.174;12.092;2022-10-17T14:30:01;6.22;;;3.63;;
29504;SDS011;16452;54.174;12.092;2022-10-17T14:32:34;7.40;;;3.40;;
29504;SDS011;16452;54.174;12.092;2022-10-17T14:35:02;8.20;;;4.05;;
29504;SDS011;16452;54.174;12.092;2022-10-17T14:40:24;7.15;;;3.20;;
29504;SDS011;16452;54.174;12.092;2022-10-17T14:42:52;8.30;;;3.53;;
29504;SDS011;16452;54.174;12.092;2022-10-17T14:47:50;4.68;;;3.47;;
29504;SDS011;16452;54.174;12.092;2022-10-17T14:50:25;6.65;;;4.00;;
29504;SDS011;16452;54.174;12.092;2022-10-17T14:53:00;6.68;;;3.45;;
29504;SDS011;16452;54.174;12.092;2022-10-17T14:55:30;7.15;;;3.83;;
29504;SDS011;16452;54.174;12.092;2022-10-17T14:57:59;7.47;;;3.70;;
29504;SDS011;16452;54.174;12.092;2022-10-17T15:00:25;10.48;;;3.75;;
29504;SDS011;16452;54.174;12.092;2022-10-17T15:02:54;6.22;;;4.03;;
29504;SDS011;16452;54.174;12.092;2022-10-17T15:05:20;8.15;;;4.07;;
29504;SDS011;16452;54.174;12.092;2022-10-17T15:07:47;7.20;;;3.80;;
29504;SDS011;16452;54.174;12.092;2022-10-17T15:10:33;8.43;;;3.90;;
29504;SDS011;16452;54.174;12.092;2022-10-17T15:13:01;9.38;;;3.70;;
29504;SDS011;16452;54.174;12.092;2022-10-17T15:15:28;8.10;;;3.85;;
29504;SDS011;16452;54.174;12.092;2022-10-17T15:17:55;5.70;;;4.18;;
29504;SDS011;16452;54.174;12.092;2022-10-17T15:20:23;8.70;;;4.13;;
29504;SDS011;16452;54.174;12.092;2022-10-17T15:22:52;10.30;;;4.80;;
29504;SDS011;16452;54.174;12.092;2022-10-17T15:25:18;10.85;;;4.35;;
29504;SDS011;16452;54.174;12.092;2022-10-17T15:27:45;6.95;;;4.40;;
29504;SDS011;16452;54.174;12.092;2022-10-17T15:30:25;5.57;;;3.83;;
29504;SDS011;16452;54.174;12.092;2022-10-17T15:32:58;6.38;;;4.30;;
29504;SDS011;16452;54.174;12.092;2022-10-17T15:35:24;15.88;;;5.13;;
29504;SDS011;16452;54.174;12.092;2022-10-17T15:37:50;6.57;;;3.92;;
29504;SDS011;16452;54.174;12.092;2022-10-17T15:40:20;9.60;;;3.85;;
29504;SDS011;16452;54.174;12.092;2022-10-17T15:42:53;6.13;;;3.70;;
29504;SDS011;16452;54.174;12.092;2022-10-17T15:45:22;10.10;;;4.30;;
29504;SDS011;16452;54.174;12.092;2022-10-17T15:47:55;8.77;;;5.13;;
29504;SDS011;16452;54.174;12.092;2022-10-17T15:50:26;12.32;;;4.97;;
29504;SDS011;16452;54.174;12.092;2022-10-17T15:52:54;9.13;;;4.78;;
29504;SDS011;16452;54.174;12.092;2022-10-17T15:55:20;8.00;;;4.38;;
29504;SDS011;16452;54.174;12.092;2022-10-17T15:57:47;7.32;;;4.40;;
29504;SDS011;16452;54.174;12.092;2022-10-17T16:00:17;6.72;;;4.65;;
29504;SDS011;16452;54.174;12.092;2022-10-17T16:02:46;7.40;;;4.50;;
29504;SDS011;16452;54.174;12.092;2022-10-17T16:05:20;7.35;;;4.40;;
29504;SDS011;16452;54.174;12.092;2022-10-17T16:07:50;12.52;;;5.18;;
29504;SDS011;16452;54.174;12.092;2022-10-17T16:10:17;6.78;;;4.43;;
29504;SDS011;16452;54.174;12.092;2022-10-17T16:12:44;9.50;;;5.32;;
29504;SDS011;16452;54.174;12.092;2022-10-17T16:17:49;7.45;;;5.05;;
29504;SDS011;16452;54.174;12.092;2022-10-17T16:20:17;6.65;;;4.85;;
29504;SDS011;16452;54.174;12.092;2022-10-17T16:22:44;8.73;;;5.40;;
29504;SDS011;16452;54.174;12.092;2022-10-17T16:27:49;10.45;;;5.70;;
29504;SDS011;16452;54.174;12.092;2022-10-17T16:30:17;9.52;;;6.50;;
29504;SDS011;16452;54.174;12.092;2022-10-17T16:32:47;12.68;;;6.32;;
29504;SDS011;16452;54.174;12.092;2022-10-17T16:35:28;11.55;;;6.30;;
29504;SDS011;16452;54.174;12.092;2022-10-17T16:37:55;8.35;;;6.07;;
29504;SDS011;16452;54.174;12.092;2022-10-17T16:40:21;7.90;;;6.55;;
29504;SDS011;16452;54.174;12.092;2022-10-17T16:42:47;9.23;;;7.30;;
29504;SDS011;16452;54.174;12.092;2022-10-17T16:45:14;11.52;;;7.53;;
29504;SDS011;16452;54.174;12.092;2022-10-17T16:47:43;12.10;;;7.30;;
29504;SDS011;16452;54.174;12.092;2022-10-17T16:50:09;10.98;;;6.28;;
29504;SDS011;16452;54.174;12.092;2022-10-17T16:52:35;10.82;;;7.00;;
29504;SDS011;16452;54.174;12.092;2022-10-17T16:55:01;10.05;;;6.65;;
29504;SDS011;16452;54.174;12.092;2022-10-17T16:57:27;10.75;;;7.32;;
29504;SDS011;16452;54.174;12.092;2022-10-17T16:59:53;11.90;;;7.55;;
29504;SDS011;16452;54.174;12.092;2022-10-17T17:02:18;12.52;;;7.63;;
29504;SDS011;16452;54.174;12.092;2022-10-17T17:04:44;9.60;;;7.32;;
29504;SDS011;16452;54.174;12.092;2022-10-17T17:07:10;13.55;;;8.13;;
29504;SDS011;16452;54.174;12.092;2022-10-17T17:09:35;12.93;;;8.60;;